Time;durP1;ratioP1;P1;durP2;ratioP2;P2;SDS_P1;SDS_P2;PMS_P1;PMS_P2;Temp;Humidity;BMP_temperature;BMP_pressure;BME280_temperature;BME280_humidity;BME280_pressure;Samples;Min_cycle;Max_cycle;Signal;HPM_P1;HPM_P2
2022/08/13 00:02:18;;;;;;;3.20;2.90;;;18.50;64.80;;;;;;5016099;28;20037;-14
2022/08/13 00:05:05;;;;;;;4.55;3.33;;;18.50;64.90;;;;;;5015966;28;20403;-13
2022/08/13 00:07:32;;;;;;;4.93;3.40;;;18.40;65.00;;;;;;5015533;28;20049;-15
2022/08/13 00:09:59;;;;;;;6.47;3.35;;;18.40;65.20;;;;;;5015484;28;20030;-14
2022/08/13 00:15:20;;;;;;;5.82;3.70;;;18.20;65.40;;;;;;5015846;28;20137;-14
2022/08/13 00:17:49;;;;;;;4.38;3.20;;;18.20;65.80;;;;;;5015823;28;20029;-14
2022/08/13 00:20:18;;;;;;;5.13;3.70;;;18.10;65.70;;;;;;5015369;28;20029;-15
2022/08/13 00:22:47;;;;;;;5.40;3.67;;;18.00;65.80;;;;;;5015550;28;20022;-14
2022/08/13 00:25:13;;;;;;;5.07;3.88;;;18.00;65.90;;;;;;5015916;28;20564;-16
2022/08/13 00:27:47;;;;;;;5.78;4.10;;;18.00;66.10;;;;;;5015235;28;20022;-13
2022/08/13 00:30:16;;;;;;;;;;;18.00;66.30;;;;;;5015977;28;20038;-16
2022/08/13 00:32:45;;;;;;;4.18;3.10;;;18.10;66.60;;;;;;5013858;28;19913;-16
2022/08/13 00:35:12;;;;;;;4.68;3.70;;;18.10;65.90;;;;;;5015244;28;20065;-15
2022/08/13 00:37:41;;;;;;;5.65;3.60;;;18.10;65.90;;;;;;5015467;28;20029;-14
2022/08/13 00:40:12;;;;;;;5.15;3.53;;;18.10;65.80;;;;;;5015180;28;20068;-15
2022/08/13 00:42:38;;;;;;;4.82;3.58;;;18.00;66.00;;;;;;5015223;28;20030;-14
2022/08/13 00:45:06;;;;;;;4.45;3.28;;;18.00;66.10;;;;;;5014757;28;20018;-14
2022/08/13 00:50:17;;;;;;;3.72;2.90;;;17.90;66.30;;;;;;5015165;28;20040;-14
2022/08/13 00:52:42;;;;;;;4.47;3.20;;;17.90;66.30;;;;;;5014995;28;20034;-14
2022/08/13 00:55:17;;;;;;;5.22;3.00;;;17.80;66.10;;;;;;5014088;28;20501;-14
2022/08/13 00:57:46;;;;;;;3.83;3.10;;;17.80;66.20;;;;;;5014956;28;20042;-15
2022/08/13 01:00:17;;;;;;;3.47;2.90;;;17.70;66.10;;;;;;5014602;28;20398;-14
2022/08/13 01:02:46;;;;;;;4.75;3.00;;;17.70;66.20;;;;;;5014946;28;20025;-14
2022/08/13 01:05:12;;;;;;;2.72;2.47;;;17.60;66.10;;;;;;5014520;28;20022;-14
2022/08/13 01:07:43;;;;;;;2.88;2.50;;;17.60;66.10;;;;;;5014482;28;20073;-14
2022/08/13 01:10:11;;;;;;;4.07;3.17;;;17.60;66.20;;;;;;5013537;28;20449;-14
2022/08/13 01:12:39;;;;;;;3.05;2.67;;;17.50;66.50;;;;;;5014649;28;20029;-15
2022/08/13 01:15:12;;;;;;;3.42;2.83;;;17.40;66.30;;;;;;5014419;28;20477;-13
2022/08/13 01:17:45;;;;;;;4.78;3.35;;;17.40;66.50;;;;;;5014396;28;20549;-16
2022/08/13 01:20:22;;;;;;;4.25;3.30;;;17.30;66.90;;;;;;5014369;28;20037;-15
2022/08/13 01:22:52;;;;;;;4.85;3.28;;;17.30;66.70;;;;;;5014083;28;20026;-15
2022/08/13 01:25:24;;;;;;;6.40;4.38;;;17.20;66.80;;;;;;5014793;28;20021;-15
2022/08/13 01:27:51;;;;;;;5.88;4.07;;;17.20;67.00;;;;;;5014560;28;20049;-14
2022/08/13 01:30:20;;;;;;;4.75;3.55;;;17.20;67.60;;;;;;5014098;28;20038;-15
2022/08/13 01:32:47;;;;;;;5.25;3.70;;;17.20;67.40;;;;;;5013952;28;20026;-17
2022/08/13 01:35:15;;;;;;;4.10;3.50;;;17.20;67.40;;;;;;5014568;28;20037;-16
2022/08/13 01:37:43;;;;;;;4.82;3.40;;;17.20;67.20;;;;;;5014240;28;20044;-15
2022/08/13 01:40:10;;;;;;;5.45;4.00;;;17.20;67.10;;;;;;5014104;28;20389;-15
2022/08/13 01:42:42;;;;;;;5.70;3.80;;;17.30;67.20;;;;;;5013996;28;20393;-16
2022/08/13 01:45:10;;;;;;;6.53;4.80;;;17.30;67.30;;;;;;5013732;28;20029;-13
2022/08/13 01:50:29;;;;;;;5.05;4.05;;;17.30;67.10;;;;;;5014137;28;20041;-13
2022/08/13 01:53:16;;;;;;;10.05;4.82;;;17.30;67.00;;;;;;5013616;28;20038;-16
2022/08/13 01:55:45;;;;;;;8.43;5.55;;;17.30;67.20;;;;;;5013678;28;20112;-14
2022/08/13 01:58:19;;;;;;;11.52;7.18;;;17.20;67.30;;;;;;5013676;28;20030;-17
2022/08/13 02:00:48;;;;;;;13.48;8.35;;;17.30;67.30;;;;;;5013689;28;20034;-15
2022/08/13 02:03:17;;;;;;;13.90;7.53;;;17.20;67.40;;;;;;5014086;28;20022;-16
2022/08/13 02:05:44;;;;;;;11.20;7.05;;;17.10;67.50;;;;;;5014063;28;20033;-14
2022/08/13 02:08:12;;;;;;;10.23;6.63;;;17.10;67.40;;;;;;5012842;28;20045;-15
2022/08/13 02:10:44;;;;;;;8.63;5.90;;;17.00;67.50;;;;;;5013377;28;20033;-15
2022/08/13 02:13:13;;;;;;;8.80;5.78;;;17.00;67.50;;;;;;5013196;28;20394;-16
2022/08/13 02:15:42;;;;;;;8.93;6.53;;;17.00;67.70;;;;;;5013758;28;20109;-15
2022/08/13 02:18:20;;;;;;;9.68;5.72;;;16.90;68.00;;;;;;5013394;28;20508;-15
2022/08/13 02:20:52;;;;;;;7.05;5.07;;;16.90;68.00;;;;;;5013429;28;20026;-15
2022/08/13 02:23:21;;;;;;;6.80;4.88;;;16.80;67.90;;;;;;5013346;28;20474;-15
2022/08/13 02:25:48;;;;;;;7.78;5.38;;;16.80;67.90;;;;;;5013177;28;20032;-14
2022/08/13 02:28:15;;;;;;;6.35;5.03;;;16.80;67.90;;;;;;5013543;28;20057;-15
2022/08/13 02:30:42;;;;;;;7.85;5.00;;;16.70;68.00;;;;;;5013521;28;20037;-17
2022/08/13 02:33:09;;;;;;;7.53;4.30;;;16.60;68.20;;;;;;5013254;28;20040;-15
2022/08/13 02:35:36;;;;;;;6.35;4.00;;;16.60;68.20;;;;;;5013775;28;20061;-16
2022/08/13 02:38:04;;;;;;;5.63;3.42;;;16.60;68.50;;;;;;5013493;28;20034;-15
2022/08/13 02:43:17;;;;;;;5.22;3.35;;;16.50;68.20;;;;;;5013768;28;20217;-15
2022/08/13 02:45:45;;;;;;;4.60;3.30;;;16.40;68.20;;;;;;5013545;28;20482;-16
2022/08/13 02:48:11;;;;;;;6.43;3.50;;;16.40;68.20;;;;;;5013346;28;20026;-15
2022/08/13 02:50:42;;;;;;;5.32;3.80;;;16.30;68.60;;;;;;5013381;28;20025;-14
2022/08/13 02:53:13;;;;;;;3.80;3.10;;;16.30;68.70;;;;;;5012829;28;20045;-15
2022/08/13 02:55:42;;;;;;;4.95;3.63;;;16.30;68.70;;;;;;5012952;28;20394;-16
2022/08/13 02:58:08;;;;;;;5.47;3.67;;;16.30;69.20;;;;;;5013009;28;20482;-14
2022/08/13 03:00:36;;;;;;;5.43;3.90;;;16.30;69.20;;;;;;5012957;28;20396;-16
2022/08/13 03:03:04;;;;;;;3.50;2.80;;;16.20;69.40;;;;;;5013096;28;20092;-15
2022/08/13 03:05:31;;;;;;;4.40;3.40;;;16.20;69.40;;;;;;5013319;28;20057;-14
2022/08/13 03:07:58;;;;;;;6.00;4.15;;;16.10;69.40;;;;;;5012755;28;20501;-13
2022/08/13 03:10:27;;;;;;;7.05;5.25;;;16.00;69.60;;;;;;5013012;28;20033;-15
2022/08/13 03:13:23;;;;;;;5.50;3.83;;;15.90;69.60;;;;;;5012617;28;20038;-13
2022/08/13 03:15:52;;;;;;;6.70;4.38;;;15.90;69.90;;;;;;5010787;28;20034;-14
2022/08/13 03:18:18;;;;;;;4.93;3.80;;;15.90;69.90;;;;;;5013062;28;20033;-15
2022/08/13 03:20:44;;;;;;;5.88;3.88;;;15.80;70.20;;;;;;5016823;28;20080;-15
2022/08/13 03:23:11;;;;;;;4.53;3.78;;;15.80;70.30;;;;;;5016264;28;20113;-14
2022/08/13 03:25:37;;;;;;;4.43;3.30;;;15.80;70.60;;;;;;5016416;28;20509;-14
2022/08/13 03:28:06;;;;;;;3.38;3.00;;;15.80;70.60;;;;;;5016682;28;20105;-13
2022/08/13 03:30:34;;;;;;;3.15;2.60;;;15.70;70.80;;;;;;5016341;28;20505;-13
2022/08/13 03:33:05;;;;;;;4.63;3.45;;;15.60;70.60;;;;;;5016111;28;20030;-15
2022/08/13 03:35:31;;;;;;;3.90;3.33;;;15.60;70.50;;;;;;5016559;28;20101;-15
2022/08/13 03:37:57;;;;;;;5.82;4.35;;;15.60;70.90;;;;;;5016507;28;20030;-16
2022/08/13 03:40:25;;;;;;;4.22;2.90;;;15.50;71.10;;;;;;5016354;28;20397;-15
2022/08/13 03:42:52;;;;;;;6.60;3.70;;;15.50;71.10;;;;;;5015981;28;20068;-16
2022/08/13 03:45:21;;;;;;;5.50;3.38;;;15.40;71.00;;;;;;5016038;28;20478;-16
2022/08/13 03:47:47;;;;;;;4.47;3.25;;;15.40;71.10;;;;;;5016008;28;20489;-15
2022/08/13 03:50:14;;;;;;;5.00;3.53;;;15.40;71.20;;;;;;5016249;28;20068;-14
2022/08/13 03:52:41;;;;;;;5.35;3.30;;;15.40;71.30;;;;;;5016094;28;20434;-16
2022/08/13 03:55:14;;;;;;;4.72;3.25;;;15.40;71.30;;;;;;5015820;28;20037;-17
2022/08/13 03:57:44;;;;;;;6.65;3.97;;;15.40;71.40;;;;;;5015925;28;20076;-14
2022/08/13 04:00:13;;;;;;;6.90;3.88;;;15.40;71.40;;;;;;5016231;28;20022;-16
2022/08/13 04:02:41;;;;;;;4.97;3.70;;;15.40;71.80;;;;;;5016110;28;20117;-15
2022/08/13 04:05:13;;;;;;;5.68;3.83;;;15.40;71.80;;;;;;5015459;28;20505;-17
2022/08/13 04:07:40;;;;;;;4.95;3.88;;;15.50;71.90;;;;;;5015724;28;20046;-15
2022/08/13 04:10:07;;;;;;;4.18;3.00;;;15.40;71.50;;;;;;5015811;28;20026;-15
2022/08/13 04:12:34;;;;;;;5.20;3.58;;;15.40;71.40;;;;;;5015497;28;20474;-15
2022/08/13 04:15:00;;;;;;;3.28;2.90;;;15.50;71.40;;;;;;5015268;28;20401;-15
2022/08/13 04:17:27;;;;;;;4.03;2.60;;;15.50;71.30;;;;;;5015670;28;20517;-14
2022/08/13 04:19:53;;;;;;;3.25;2.60;;;15.50;71.10;;;;;;5015386;28;20040;-17
2022/08/13 04:22:20;;;;;;;3.15;2.63;;;15.50;71.10;;;;;;5015643;28;20084;-17
2022/08/13 04:24:46;;;;;;;2.90;2.60;;;15.50;71.10;;;;;;5015317;28;20042;-16
2022/08/13 04:27:12;;;;;;;4.38;3.15;;;15.50;71.40;;;;;;5015229;28;20033;-16
2022/08/13 04:29:39;;;;;;;4.47;3.00;;;15.40;71.50;;;;;;5015146;28;20053;-15
2022/08/13 04:32:05;;;;;;;4.50;3.20;;;15.50;71.70;;;;;;5014849;28;20034;-15
2022/08/13 04:34:31;;;;;;;4.55;2.53;;;15.40;71.60;;;;;;5015293;28;20084;-16
2022/08/13 04:36:57;;;;;;;4.32;3.13;;;15.40;71.50;;;;;;5015109;28;20022;-17
2022/08/13 04:39:24;;;;;;;5.18;3.70;;;15.40;71.60;;;;;;5015354;28;20540;-15
2022/08/13 04:41:51;;;;;;;4.57;3.40;;;15.40;71.60;;;;;;5015186;28;20033;-15
2022/08/13 04:44:17;;;;;;;3.78;2.90;;;15.40;71.70;;;;;;5015089;28;20152;-16
2022/08/13 04:46:43;;;;;;;3.50;2.75;;;15.40;71.60;;;;;;5014991;28;20101;-15
2022/08/13 04:49:11;;;;;;;4.45;2.80;;;15.40;71.70;;;;;;5014987;28;20050;-15
2022/08/13 04:51:39;;;;;;;2.63;2.28;;;15.40;71.40;;;;;;5014817;28;20363;-16
2022/08/13 04:54:05;;;;;;;4.72;3.10;;;15.40;71.30;;;;;;5014688;28;20030;-15
2022/08/13 04:56:31;;;;;;;12.88;4.20;;;15.40;71.80;;;;;;5014872;28;20385;-16
2022/08/13 04:58:57;;;;;;;4.22;2.70;;;15.40;71.60;;;;;;5014559;28;20026;-15
2022/08/13 05:01:23;;;;;;;3.33;2.92;;;15.40;71.90;;;;;;5014956;28;20041;-15
2022/08/13 05:03:51;;;;;;;3.80;2.63;;;15.40;71.70;;;;;;5014686;28;20560;-15
2022/08/13 05:06:19;;;;;;;5.35;3.10;;;15.40;71.60;;;;;;5014535;28;20135;-16
2022/08/13 05:08:47;;;;;;;4.50;3.30;;;15.50;71.70;;;;;;5014868;28;20022;-15
2022/08/13 05:11:14;;;;;;;2.45;2.25;;;15.50;71.90;;;;;;5013157;28;20494;-15
2022/08/13 05:13:42;;;;;;;5.60;3.35;;;15.50;71.50;;;;;;5015008;28;20044;-15
2022/08/13 05:16:12;;;;;;;4.97;3.15;;;15.60;71.60;;;;;;5014405;28;20033;-15
2022/08/13 05:18:43;;;;;;;5.70;3.40;;;15.70;71.70;;;;;;5014313;28;20425;-15
2022/08/13 05:21:10;;;;;;;3.53;3.10;;;15.70;73.90;;;;;;5014180;28;20498;-15
2022/08/13 05:23:41;;;;;;;3.72;3.00;;;15.70;74.40;;;;;;5014210;28;20017;-15
2022/08/13 05:26:10;;;;;;;4.30;3.17;;;15.80;73.60;;;;;;5014513;28;20018;-15
2022/08/13 05:28:37;;;;;;;3.28;2.75;;;15.80;73.40;;;;;;5014082;28;20126;-16
2022/08/13 05:31:04;;;;;;;3.83;3.17;;;15.90;73.20;;;;;;5014242;28;20124;-15
2022/08/13 05:33:33;;;;;;;4.38;2.80;;;16.00;73.10;;;;;;5014308;28;20030;-15
2022/08/13 05:36:01;;;;;;;18.80;5.60;;;16.10;72.90;;;;;;5014136;28;20038;-15
2022/08/13 05:38:29;;;;;;;3.95;3.08;;;16.30;73.60;;;;;;5014157;28;20026;-15
2022/08/13 05:40:59;;;;;;;5.05;3.33;;;16.40;72.30;;;;;;5013904;28;20096;-15
2022/08/13 05:43:30;;;;;;;4.65;3.22;;;16.60;71.40;;;;;;5014566;28;20114;-14
2022/08/13 05:45:58;;;;;;;5.07;2.88;;;16.80;71.10;;;;;;5013908;28;20034;-16
2022/08/13 05:48:36;;;;;;;4.97;3.03;;;16.90;70.40;;;;;;5014124;28;20025;-15
2022/08/13 05:51:04;;;;;;;5.57;2.95;;;17.10;69.80;;;;;;5013723;28;20025;-15
2022/08/13 05:53:32;;;;;;;5.47;2.75;;;17.40;69.10;;;;;;5014100;28;20113;-17
2022/08/13 05:55:58;;;;;;;4.10;2.80;;;17.50;68.60;;;;;;5013870;28;20080;-15
2022/08/13 05:58:24;;;;;;;3.17;2.47;;;17.80;68.00;;;;;;5013678;28;20076;-16
2022/08/13 06:03:37;;;;;;;3.50;2.45;;;18.20;66.60;;;;;;5014182;28;20032;-15
2022/08/13 06:06:06;;;;;;;3.90;2.78;;;18.40;65.90;;;;;;5013604;28;20061;-15
2022/08/13 06:08:39;;;;;;;2.50;2.30;;;18.60;65.40;;;;;;5014082;28;20040;-15
2022/08/13 06:11:11;;;;;;;2.92;2.58;;;18.90;65.00;;;;;;5013586;28;20030;-15
2022/08/13 06:13:39;;;;;;;4.50;2.87;;;19.10;64.40;;;;;;5013674;28;20557;-15
2022/08/13 06:16:08;;;;;;;4.35;2.50;;;19.30;63.80;;;;;;5013514;28;20108;-14
2022/08/13 06:18:40;;;;;;;5.28;3.30;;;19.50;63.20;;;;;;5013413;28;20073;-14
2022/08/13 06:21:11;;;;;;;3.75;3.05;;;19.70;62.90;;;;;;5013488;28;20058;-14
2022/08/13 06:23:38;;;;;;;3.60;3.10;;;19.90;62.50;;;;;;5013602;28;20382;-15
2022/08/13 06:26:11;;;;;;;6.78;3.20;;;20.00;62.10;;;;;;5013365;28;20513;-15
2022/08/13 06:28:42;;;;;;;2.85;2.40;;;20.20;61.50;;;;;;5013350;28;20037;-14
2022/08/13 06:31:13;;;;;;;5.07;4.30;;;20.40;61.20;;;;;;5013104;28;20018;-16
2022/08/13 06:33:40;;;;;;;5.28;3.60;;;20.60;60.80;;;;;;5013676;28;20410;-16
2022/08/13 06:36:13;;;;;;;4.97;3.25;;;20.70;60.60;;;;;;5013223;28;20501;-14
2022/08/13 06:38:48;;;;;;;6.27;3.07;;;20.80;60.20;;;;;;5013394;28;20018;-15
2022/08/13 06:41:16;;;;;;;4.88;3.10;;;21.00;59.90;;;;;;5013073;28;20760;-15
2022/08/13 06:43:44;;;;;;;4.85;2.75;;;21.20;58.90;;;;;;5013177;28;20052;-14
2022/08/13 06:46:12;;;;;;;4.35;2.60;;;21.40;57.90;;;;;;5013504;28;20473;-15
2022/08/13 06:48:42;;;;;;;4.75;2.90;;;21.50;57.30;;;;;;5013109;28;20474;-15
2022/08/13 06:51:11;;;;;;;5.03;2.67;;;21.60;56.70;;;;;;5012891;28;20038;-16
2022/08/13 06:53:39;;;;;;;5.20;2.78;;;21.70;56.20;;;;;;5013688;28;20041;-15
2022/08/13 06:56:11;;;;;;;3.75;2.60;;;21.80;56.00;;;;;;5017111;28;20176;-15
2022/08/13 06:58:39;;;;;;;4.63;2.97;;;21.90;55.90;;;;;;5017011;28;20022;-16
2022/08/13 07:01:05;;;;;;;4.75;2.63;;;22.00;55.70;;;;;;5017110;28;20159;-15
2022/08/13 07:03:34;;;;;;;3.15;2.50;;;22.10;55.90;;;;;;5017125;28;20061;-14
2022/08/13 07:06:01;;;;;;;5.10;2.58;;;22.30;55.90;;;;;;5016857;28;20104;-14
2022/08/13 07:08:30;;;;;;;3.47;2.30;;;22.40;55.60;;;;;;5016902;28;20049;-13
2022/08/13 07:13:49;;;;;;;4.43;2.38;;;22.70;55.70;;;;;;5017050;28;20041;-14
2022/08/13 07:16:16;;;;;;;2.30;2.08;;;23.00;55.20;;;;;;5016932;28;20034;-14
2022/08/13 07:18:49;;;;;;;3.08;2.20;;;23.30;54.20;;;;;;5016677;28;20033;-14
2022/08/13 07:21:19;;;;;;;4.10;2.10;;;23.50;53.30;;;;;;5017101;28;20030;-14
2022/08/13 07:23:47;;;;;;;2.47;2.10;;;23.90;52.20;;;;;;5016780;28;20103;-14
2022/08/13 07:26:18;;;;;;;3.78;2.00;;;24.20;51.80;;;;;;5016620;28;20065;-16
2022/08/13 07:28:46;;;;;;;5.10;2.47;;;24.40;51.40;;;;;;5016725;28;20045;-15
2022/08/13 07:31:13;;;;;;;3.00;2.20;;;24.60;51.00;;;;;;5016365;28;20041;-14
2022/08/13 07:33:43;;;;;;;5.40;2.10;;;24.70;50.60;;;;;;5016547;28;20034;-14
2022/08/13 07:36:14;;;;;;;1.73;1.63;;;24.80;49.60;;;;;;5015096;28;20544;-14
2022/08/13 07:38:43;;;;;;;1.95;1.70;;;24.90;49.00;;;;;;5016587;28;20045;-14
2022/08/13 07:41:10;;;;;;;14.85;10.75;;;25.00;48.60;;;;;;5016179;28;20038;-14
2022/08/13 07:43:41;;;;;;;10.25;6.03;;;25.20;47.80;;;;;;5016134;28;20025;-14
2022/08/13 07:46:10;;;;;;;10.38;8.23;;;25.40;46.80;;;;;;5016171;28;20022;-14
2022/08/13 07:48:41;;;;;;;14.18;10.98;;;25.50;46.50;;;;;;5016112;28;20030;-14
2022/08/13 07:51:19;;;;;;;10.27;7.53;;;25.70;46.40;;;;;;5015922;28;20061;-14
2022/08/13 07:53:54;;;;;;;2.75;2.05;;;25.90;45.90;;;;;;5015929;28;20037;-14
2022/08/13 07:56:29;;;;;;;2.58;2.30;;;26.20;44.60;;;;;;5015910;28;20037;-14
2022/08/13 07:59:00;;;;;;;5.35;2.10;;;26.40;44.60;;;;;;5015619;28;20557;-14
2022/08/13 08:01:28;;;;;;;3.05;1.90;;;26.60;43.80;;;;;;5016441;28;20022;-14
2022/08/13 08:03:57;;;;;;;2.28;1.75;;;26.90;43.50;;;;;;5014532;28;20029;-14
2022/08/13 08:06:25;;;;;;;2.53;1.80;;;27.00;43.00;;;;;;5014320;28;20054;-16
2022/08/13 08:08:53;;;;;;;2.00;1.80;;;27.10;42.50;;;;;;5015531;28;20041;-15
2022/08/13 08:14:05;;;;;;;2.80;1.88;;;27.50;41.70;;;;;;5015705;28;20048;-14
2022/08/13 08:16:32;;;;;;;3.13;1.80;;;27.90;39.90;;;;;;5015566;28;20402;-14
2022/08/13 08:19:01;;;;;;;3.17;2.00;;;28.20;39.40;;;;;;5015569;28;20527;-14
2022/08/13 08:21:28;;;;;;;3.25;1.77;;;28.60;39.40;;;;;;5015646;28;20563;-14
2022/08/13 08:23:59;;;;;;;2.10;1.90;;;28.90;38.80;;;;;;5015594;28;20092;-15
2022/08/13 08:26:27;;;;;;;4.32;1.45;;;29.20;37.20;;;;;;5015632;28;20026;-15
2022/08/13 08:28:55;;;;;;;2.97;1.98;;;29.50;37.00;;;;;;5015373;28;20405;-14
2022/08/13 08:31:22;;;;;;;4.45;1.80;;;29.90;35.10;;;;;;5015653;28;20029;-13
2022/08/13 08:33:50;;;;;;;3.80;1.83;;;30.20;35.00;;;;;;5015560;28;20172;-13
2022/08/13 08:36:16;;;;;;;2.90;2.00;;;30.30;34.50;;;;;;5015121;28;20022;-14
2022/08/13 08:44:23;;;;;;;2.47;2.08;;;30.60;34.20;;;;;;5015356;28;20069;-13
2022/08/13 08:46:57;;;;;;;5.45;2.00;;;30.70;33.90;;;;;;5014789;28;20469;-14
2022/08/13 08:49:24;;;;;;;2.00;1.80;;;30.90;31.90;;;;;;5014960;28;20033;-13
2022/08/13 08:51:54;;;;;;;3.10;2.08;;;31.00;32.20;;;;;;5014878;28;20034;-13
2022/08/13 08:54:22;;;;;;;3.47;1.98;;;31.10;31.90;;;;;;5015010;28;20152;-14
2022/08/13 08:56:52;;;;;;;2.25;2.05;;;31.40;31.80;;;;;;5014624;28;20113;-16
2022/08/13 08:59:20;;;;;;;4.05;2.00;;;31.50;30.70;;;;;;5014734;28;20493;-14
2022/08/13 09:01:46;;;;;;;5.03;1.80;;;31.60;31.40;;;;;;5014868;28;20018;-14
2022/08/13 09:04:13;;;;;;;1.90;1.70;;;31.90;31.70;;;;;;5014958;28;20026;-13
2022/08/13 09:06:42;;;;;;;1.88;1.77;;;32.10;30.80;;;;;;5014513;28;20061;-13
2022/08/13 09:09:08;;;;;;;2.33;1.83;;;32.20;31.20;;;;;;5014635;28;20030;-13
2022/08/13 09:11:36;;;;;;;2.15;1.80;;;32.30;30.30;;;;;;5014662;28;20091;-14
2022/08/13 09:14:07;;;;;;;3.13;1.67;;;32.40;30.00;;;;;;5014694;28;20030;-13
2022/08/13 09:16:38;;;;;;;1.70;1.60;;;32.30;30.00;;;;;;5014497;28;20037;-13
2022/08/13 09:19:09;;;;;;;2.88;1.90;;;32.50;30.60;;;;;;5014160;28;20494;-15
2022/08/13 09:21:45;;;;;;;2.22;1.90;;;32.80;29.90;;;;;;5014707;28;20056;-15
2022/08/13 09:24:15;;;;;;;2.42;1.75;;;33.00;28.50;;;;;;5014566;28;20018;-14
2022/08/13 09:26:55;;;;;;;4.28;1.90;;;33.20;29.40;;;;;;5014161;28;20117;-14
2022/08/13 09:29:23;;;;;;;3.05;1.70;;;33.20;29.00;;;;;;5014240;28;20029;-14
2022/08/13 09:31:54;;;;;;;1.98;1.50;;;33.20;29.00;;;;;;5014668;28;20371;-13
2022/08/13 09:34:20;;;;;;;1.90;1.77;;;33.30;29.30;;;;;;5014395;28;20088;-14
2022/08/13 09:36:48;;;;;;;1.80;1.65;;;33.50;29.90;;;;;;5014365;28;20025;-13
2022/08/13 09:39:31;;;;;;;2.00;1.65;;;33.80;28.50;;;;;;5014017;28;20248;-13
2022/08/13 09:42:00;;;;;;;3.75;1.80;;;33.70;29.00;;;;;;5014073;28;20030;-14
2022/08/13 09:44:26;;;;;;;2.40;1.77;;;33.70;28.90;;;;;;5013845;28;20029;-16
2022/08/13 09:46:52;;;;;;;3.15;2.10;;;33.70;29.10;;;;;;5014084;28;20034;-14
2022/08/13 09:49:20;;;;;;;2.03;1.73;;;33.60;28.40;;;;;;5013847;28;20034;-13
2022/08/13 09:51:46;;;;;;;3.97;1.80;;;33.60;28.80;;;;;;5014112;28;20034;-13
2022/08/13 09:54:12;;;;;;;3.80;1.90;;;33.40;29.20;;;;;;5013941;28;20454;-14
2022/08/13 09:56:39;;;;;;;3.33;1.80;;;33.20;29.30;;;;;;5013614;28;20076;-14
2022/08/13 09:59:10;;;;;;;2.75;1.95;;;33.40;29.40;;;;;;5013860;28;20081;-15
2022/08/13 10:01:38;;;;;;;2.13;2.00;;;33.70;29.20;;;;;;5014001;28;20050;-15
2022/08/13 10:04:04;;;;;;;3.17;1.70;;;33.80;29.10;;;;;;5013646;28;20026;-14
2022/08/13 10:06:32;;;;;;;2.53;1.75;;;33.90;28.50;;;;;;5013350;28;20095;-14
2022/08/13 10:09:00;;;;;;;4.05;2.03;;;33.90;28.30;;;;;;5013600;28;20485;-14
2022/08/13 10:11:28;;;;;;;2.63;1.80;;;33.80;28.40;;;;;;5013841;28;20018;-14
2022/08/13 10:13:56;;;;;;;2.42;1.83;;;33.90;28.30;;;;;;5013475;28;20041;-16
2022/08/13 10:16:22;;;;;;;1.70;1.60;;;33.90;28.60;;;;;;5013491;28;20022;-14
2022/08/13 10:18:48;;;;;;;4.25;1.80;;;34.20;28.00;;;;;;5013380;28;20033;-15
2022/08/13 10:21:14;;;;;;;2.55;1.67;;;34.30;27.90;;;;;;5013489;28;20019;-15
2022/08/13 10:23:41;;;;;;;2.13;1.73;;;34.50;28.10;;;;;;5013363;28;20110;-14
2022/08/13 10:26:07;;;;;;;2.83;1.80;;;34.80;26.70;;;;;;5013511;28;20030;-15
2022/08/13 10:28:36;;;;;;;2.53;1.90;;;34.70;27.10;;;;;;5012674;28;20037;-14
2022/08/13 10:31:07;;;;;;;2.80;2.08;;;35.00;26.90;;;;;;5013160;28;20026;-14
2022/08/13 10:33:37;;;;;;;3.38;1.92;;;35.20;26.70;;;;;;5013345;28;20041;-13
2022/08/13 10:36:07;;;;;;;2.90;2.00;;;35.20;27.20;;;;;;5013465;28;20108;-14
2022/08/13 10:38:33;;;;;;;4.10;1.73;;;35.50;26.60;;;;;;5013326;28;20026;-13
2022/08/13 10:41:04;;;;;;;3.15;1.83;;;35.60;25.80;;;;;;5013272;28;20026;-14
2022/08/13 10:43:31;;;;;;;2.58;1.70;;;35.50;26.30;;;;;;5013797;28;20489;-14
2022/08/13 10:45:59;;;;;;;1.70;1.60;;;35.80;26.30;;;;;;5013422;28;20034;-13
2022/08/13 10:48:27;;;;;;;2.13;1.92;;;36.10;25.90;;;;;;5013448;28;20022;-14
2022/08/13 10:50:54;;;;;;;2.33;1.80;;;36.20;25.60;;;;;;5012944;28;20029;-14
2022/08/13 10:56:10;;;;;;;3.17;1.90;;;36.00;24.60;;;;;;5013509;28;20103;-13
2022/08/13 10:58:36;;;;;;;3.08;1.65;;;35.80;25.90;;;;;;5013269;28;20022;-15
2022/08/13 11:01:03;;;;;;;2.75;2.08;;;36.00;26.00;;;;;;5012866;28;20018;-14
2022/08/13 11:03:33;;;;;;;2.20;1.63;;;36.10;25.80;;;;;;5013322;28;20026;-14
2022/08/13 11:06:00;;;;;;;3.47;1.92;;;36.40;25.80;;;;;;5012748;28;20026;-16
2022/08/13 11:08:37;;;;;;;1.90;1.80;;;36.50;25.50;;;;;;5012069;28;20030;-14
2022/08/13 11:11:08;;;;;;;3.90;1.95;;;36.40;25.30;;;;;;5012720;28;20029;-14
2022/08/13 11:13:37;;;;;;;4.18;2.03;;;36.50;26.10;;;;;;5013273;28;20026;-14
2022/08/13 11:16:56;;;;;;;2.33;1.90;;;36.80;25.90;;;;;;4995689;28;20030;-14
2022/08/13 11:18:52;;;;;;;2.20;1.90;;;37.20;25.50;;;;;;4998641;28;20034;-14
2022/08/13 11:21:18;;;;;;;2.20;2.00;;;37.40;24.70;;;;;;5013327;28;20026;-15
2022/08/13 11:23:44;;;;;;;1.80;1.70;;;37.30;25.10;;;;;;5012803;28;20048;-14
2022/08/13 11:26:11;;;;;;;3.92;2.00;;;37.40;24.90;;;;;;5012711;28;20030;-13
2022/08/13 11:28:37;;;;;;;5.78;1.73;;;37.50;24.70;;;;;;5012766;28;20048;-15
2022/08/13 11:31:03;;;;;;;2.15;1.95;;;37.50;24.60;;;;;;5012534;28;20136;-15
2022/08/13 11:33:30;;;;;;;2.30;2.10;;;37.50;25.20;;;;;;5012594;28;20117;-14
2022/08/13 11:35:57;;;;;;;2.45;2.10;;;37.40;25.20;;;;;;5012776;28;20030;-14
2022/08/13 11:38:23;;;;;;;3.03;2.05;;;37.20;25.50;;;;;;5012966;28;20022;-14
2022/08/13 11:40:51;;;;;;;2.05;1.92;;;36.80;26.10;;;;;;5014726;28;20029;-14
2022/08/13 11:43:16;;;;;;;2.85;2.05;;;36.60;25.90;;;;;;5016157;28;20030;-14
2022/08/13 11:45:43;;;;;;;2.92;2.15;;;36.50;26.20;;;;;;5016126;28;20040;-14
2022/08/13 11:48:09;;;;;;;4.65;1.70;;;36.70;26.20;;;;;;5016382;28;20029;-14
2022/08/13 11:50:35;;;;;;;3.58;1.90;;;36.70;26.70;;;;;;5016329;28;20113;-14
2022/08/13 11:53:01;;;;;;;2.40;1.80;;;36.70;26.40;;;;;;5015987;28;20562;-13
2022/08/13 11:55:27;;;;;;;3.15;1.80;;;36.50;26.70;;;;;;5016490;28;20033;-14
2022/08/13 11:58:01;;;;;;;2.78;1.73;;;36.40;26.80;;;;;;5016267;28;20100;-13
2022/08/13 12:00:27;;;;;;;4.40;2.00;;;36.50;27.10;;;;;;5016129;28;20036;-14
2022/08/13 12:02:54;;;;;;;4.20;2.03;;;36.70;26.90;;;;;;5015556;28;20029;-14
2022/08/13 12:05:20;;;;;;;3.17;1.90;;;36.70;27.00;;;;;;5015770;28;20034;-14
2022/08/13 12:07:46;;;;;;;3.28;1.90;;;36.80;26.70;;;;;;5015665;28;20112;-14
2022/08/13 12:10:12;;;;;;;3.10;1.90;;;36.70;26.70;;;;;;5015834;28;20433;-14
2022/08/13 12:12:38;;;;;;;2.25;1.90;;;36.80;26.60;;;;;;5015527;28;20029;-13
2022/08/13 12:15:05;;;;;;;3.17;1.90;;;36.80;26.70;;;;;;5015624;28;20034;-14
2022/08/13 12:17:31;;;;;;;3.38;2.10;;;36.90;26.60;;;;;;5016408;28;20033;-13
2022/08/13 12:19:57;;;;;;;3.60;1.95;;;37.00;26.20;;;;;;5015496;28;20057;-14
2022/08/13 12:22:23;;;;;;;2.85;2.00;;;37.10;26.40;;;;;;5015445;28;20029;-14
2022/08/13 12:24:51;;;;;;;3.03;2.00;;;37.30;26.40;;;;;;5015196;28;20080;-15
2022/08/13 12:27:18;;;;;;;3.40;1.95;;;37.30;26.10;;;;;;5015382;28;20030;-14
2022/08/13 12:29:44;;;;;;;7.40;2.20;;;37.30;26.70;;;;;;5015536;28;20489;-14
2022/08/13 12:32:10;;;;;;;6.13;2.40;;;37.10;27.00;;;;;;5015308;28;20064;-13
2022/08/13 12:34:37;;;;;;;4.45;2.22;;;37.20;27.20;;;;;;5015373;28;20111;-13
2022/08/13 12:37:03;;;;;;;3.15;1.98;;;37.10;27.20;;;;;;5015040;28;20021;-14
2022/08/13 12:39:29;;;;;;;4.95;2.22;;;36.90;27.40;;;;;;5015143;28;20022;-13
2022/08/13 12:41:55;;;;;;;4.75;2.22;;;36.70;28.00;;;;;;5014976;28;20497;-14
2022/08/13 12:44:21;;;;;;;6.38;2.35;;;36.80;28.10;;;;;;5013863;28;20041;-14
2022/08/13 12:46:47;;;;;;;5.43;2.08;;;36.90;28.20;;;;;;5014831;28;20040;-15
2022/08/13 12:49:13;;;;;;;3.72;2.10;;;37.00;28.30;;;;;;5014967;28;20022;-13
2022/08/13 12:51:40;;;;;;;4.22;2.30;;;37.10;28.20;;;;;;5014588;28;20071;-14
2022/08/13 12:54:06;;;;;;;2.35;1.85;;;37.00;28.30;;;;;;5014961;28;20077;-14
2022/08/13 12:56:32;;;;;;;3.17;2.20;;;37.20;28.40;;;;;;5014725;28;20036;-14
2022/08/13 12:58:58;;;;;;;4.15;2.10;;;37.50;28.20;;;;;;5014515;28;20026;-14
2022/08/13 13:01:24;;;;;;;4.90;2.28;;;37.90;27.60;;;;;;5014952;28;20054;-14
2022/08/13 13:03:50;;;;;;;3.05;2.15;;;38.00;27.60;;;;;;5014618;28;20421;-14
2022/08/13 13:06:17;;;;;;;2.45;2.10;;;38.00;27.40;;;;;;5014584;28;20054;-15
2022/08/13 13:08:44;;;;;;;5.95;2.25;;;37.70;27.60;;;;;;5014682;28;20057;-14
2022/08/13 13:11:13;;;;;;;2.92;1.85;;;37.40;27.70;;;;;;5014834;28;20046;-14
2022/08/13 13:13:40;;;;;;;5.97;2.30;;;37.20;28.20;;;;;;5014410;28;20026;-14
2022/08/13 13:16:07;;;;;;;5.90;2.28;;;37.20;28.30;;;;;;5013239;28;20038;-14
2022/08/13 13:18:33;;;;;;;3.75;2.25;;;37.40;27.90;;;;;;5014399;28;20033;-14
2022/08/13 13:21:00;;;;;;;2.13;1.80;;;37.40;28.10;;;;;;5014427;28;20116;-14